Aeroporto :
LOGIN :

Iscrizione | Disclaimer

   EN    FR    IT 

 










Sommario :    VFR   VFR Marginale   IFR   IFR Intensivo   IFR Molto Intensivo
Visibilità : 
Base nubi : 
>= 8 km
>= 3000ft
5 / 8 km
1000 / 3000 ft
1500m / 5 km
500 / 1000 ft
800 / 1500m
200 / 500 ft
< 800m
< 200 ft
Simboli :   Temporali  Nebbia  Neve Forte  Precipitazioni Forti  Vento > 20 kt
SIGMETs :   Varie  Temporali  Ghiacco  Turbolenza  Onda orograficha  Ceneri Vulcaniche







- Altitudine del aeroporto : 7 ft
- Codice IATA : XHE
- Carte del aeroporto


LFTH - Hyeres

ULTIMO METAR :
  • 182300Z AUTO 36001KT 9999 ////// 21/19 Q1013

METARs OBSOLETI :
  • 182230Z AUTO 36002KT 9999 ////// 22/19 Q1013
  • 182200Z AUTO VRB01KT 9999 ////// 23/20 Q1013
  • 182130Z AUTO 00000KT 9999 ////// 23/20 Q1013
  • 182100Z AUTO 00000KT CAVOK 23/20 Q1013 TEMPO BKN014
  • 182030Z AUTO VRB01KT CAVOK 23/20 Q1013 TEMPO BKN014

TAF TAF LFTH
Valido dal 18 a 21 ore il 19 a 21 ore UTC


182000Z 1821/1921 VRB05KT 9999 FEW020
TEMPO 1821/1905 BKN014
BECMG 1909/1911 17010KT
BECMG 1916/1918 VRB05KT
TEMPO 1918/1921 BKN014
Nessun NOTAM noto per questo aeroporto.



MetMap, La meteo Aeronautica in un colpo d'occhio ! - Copyright ORBIFLY Dicembre 2007 - Disclaimer

ORBIFLY MET'MAP TEAM :

Programmazione e sviluppo : Alexandra Zaïnal
Concezione e sviluppo : Baudouin d'Aumeries
Co-Programmazione e sviluppo : Marc-Olivier Méhu
Supporto tecnico e logistico : Manuel Goepfert
Aiuto per la traduzione : Arnaldo La Scala

Contatto : metmap@orbifly.com




FONTI E CREDITI :

   NOAA